DFCB weather

Barsalogho Airport
Barsalogho, Sanmatenga, Burkina Faso

Public forecast

Using degrees Celsius for public forecast. Weather courtesy of forecast.io.

METAR (pilot weather report)

Closest report is Ouagadougou Airport, 68.0 nm (126.0 km) SSW. Retrieved 2019/03/23 14:00 UTC (47 minutes ago):

DFFD 231400Z 05008KT 010V090 CAVOK 38/M08 Q1009 NOSIG

TAF (pilot weather forecast)

Closest forecast is Ouagadougou Airport, 68.0 nm (126.0 km) SSW. Retrieved 2019/03/23 12:21 UTC (2 hours ago):

TAF DFFD 231100Z 2312/2418 02010KT 8000 NSC